Oakland, CA

4:47 PM PST on January 31, 2015 (GMT -0800)
Produce and Waterfront | Change Station
CLOSE
Current Station
Personal Weather Station
Location: Oakland, CA
Elevation: 40 ft
Nearby Weather Stations

Elev 40 ft 37.80 °N, 122.27 °W | Updated 18 seconds ago

Clear
Clear
74.1 °F
Feels Like 77 °F
N
0.0
Wind Variable Wind from WSW
Gusts 2.0 mph

Today
High -- | Low -- °F
--% Chance of Precip.
Yesterday
High -- | Low -- °F
Precip. -- in
7:14 AM 5:31 PM
Waxing Gibbous, 92% visible
Pressure 29.96 in
Visibility 10.0 miles
Clouds Few 20000 ft
Heat Index 77 °F
Dew Point 42 °F
Humidity 31%
Rainfall 0.00 in
Snow Depth Not available.
UV 1 out of 12
Pollen 5.30 out of 12
Air Quality Not available.
Flu Activity Not available.
METAR KOAK 312353Z 30004KT 10SM FEW200 23/00 A2995 RMK AO2 SLP143 T02280000 10228 20172 56004

More Conditions Fewer Conditions

Pressure 29.96 in
Visibility 10.0 miles
Clouds Few 20000 ft
Heat Index 77 °F
Dew Point 42 °F
Humidity 31%
Rainfall 0.00 in
Snow Depth Not available.
UV 1 out of 12
Pollen 5.30 out of 12
Air Quality Not available.
Flu Activity Not available.
METAR KOAK 312353Z 30004KT 10SM FEW200 23/00 A2995 RMK AO2 SLP143 T02280000 10228 20172 56004

More Conditions Fewer Conditions

10-Day Weather Forecast

Almanac

Astronomy

Jan. 31, 2015 Rise Set
Actual Time
Civil Twilight
Nautical Twilight
Astronomical Twilight
Moon
Length of Visible Light
Length of Day
Tomorrow will be .
, % of the Moon is Illuminated

Today's Extremes

State Highs State Lows

Community

WunderPhotos

Upload Photos

1,792,265 photos uploaded!

WunderBlogs® & News

Nearby

Air Quality

  Air Quality AQ Index Pollutant
Not available.

Snow Depth

Station Depth Elevation

Earthquake Activity

City Distance Mag. Time & Date
Minimum magnitude displayed is 2.5.

Coastal Water Temperatures

Place Temperature

Nearby Weather Stations